createdAt,value
2018-03-25T00:00:28.000Z,99167
2018-03-25T00:01:28.000Z,99166
2018-03-25T00:03:28.000Z,99167
2018-03-25T00:04:28.000Z,99167
2018-03-25T00:06:28.000Z,99169
2018-03-25T00:08:28.000Z,99170
2018-03-25T00:10:28.000Z,99166
2018-03-25T00:12:28.000Z,99167
2018-03-25T00:13:28.000Z,99168
2018-03-25T00:14:28.000Z,99168
2018-03-25T00:16:28.000Z,99168
2018-03-25T00:17:57.000Z,99166
2018-03-25T00:19:28.000Z,99168
2018-03-25T00:21:28.000Z,99164
2018-03-25T00:23:28.000Z,99166
2018-03-25T00:25:28.000Z,99170
2018-03-25T00:26:28.000Z,99166
2018-03-25T00:27:28.000Z,99167
2018-03-25T00:29:28.000Z,99168
2018-03-25T00:33:28.000Z,99164
2018-03-25T00:35:14.000Z,99175
2018-03-25T00:37:14.000Z,99178
2018-03-25T00:38:59.000Z,99167
2018-03-25T00:40:14.000Z,99165
2018-03-25T00:41:14.000Z,99163
2018-03-25T00:43:14.000Z,99162
2018-03-25T00:44:14.000Z,99168
2018-03-25T00:46:14.000Z,99164
2018-03-25T00:47:59.000Z,99166
2018-03-25T00:49:14.000Z,99163
2018-03-25T00:51:14.000Z,99170
2018-03-25T00:53:14.000Z,99176
2018-03-25T00:55:14.000Z,99173
2018-03-25T00:56:14.000Z,99168
2018-03-25T00:57:14.000Z,99170
2018-03-25T00:59:14.000Z,99170
2018-03-25T01:01:14.000Z,99165
2018-03-25T01:03:14.000Z,99168
2018-03-25T01:04:14.000Z,99172
2018-03-25T01:06:14.000Z,99166
2018-03-25T01:07:59.000Z,99168
2018-03-25T01:09:14.000Z,99170
2018-03-25T01:11:13.000Z,99170
2018-03-25T01:12:13.000Z,99171
2018-03-25T01:13:13.000Z,99170
2018-03-25T01:15:13.000Z,99168
2018-03-25T01:16:58.000Z,99167
2018-03-25T01:18:13.000Z,99167
2018-03-25T01:20:13.000Z,99163
2018-03-25T01:21:58.000Z,99161
2018-03-25T01:23:13.000Z,99163
2018-03-25T01:24:13.000Z,99162
2018-03-25T01:26:13.000Z,99157
2018-03-25T01:27:13.000Z,99158
2018-03-25T01:28:13.000Z,99158
2018-03-25T01:30:13.000Z,99156
2018-03-25T01:32:13.000Z,99158
2018-03-25T01:34:13.000Z,99163
2018-03-25T01:35:13.000Z,99164
2018-03-25T01:36:58.000Z,99156
2018-03-25T01:38:13.000Z,99161
2018-03-25T01:40:13.000Z,99159
2018-03-25T01:42:13.000Z,99160
2018-03-25T01:44:13.000Z,99162
2018-03-25T01:45:13.000Z,99158
2018-03-25T01:47:13.000Z,99157
2018-03-25T01:49:13.000Z,99161
2018-03-25T01:51:13.000Z,99159
2018-03-25T01:52:13.000Z,99161
2018-03-25T01:53:13.000Z,99159
2018-03-25T01:54:58.000Z,99166
2018-03-25T01:56:13.000Z,99161
2018-03-25T01:58:13.000Z,99162
2018-03-25T01:59:13.000Z,99164
2018-03-25T02:01:13.000Z,99157
2018-03-25T02:02:13.000Z,99162
2018-03-25T02:03:13.000Z,99161
2018-03-25T02:04:13.000Z,99165
2018-03-25T02:06:13.000Z,99163
2018-03-25T02:08:13.000Z,99156
2018-03-25T02:10:13.000Z,99154
2018-03-25T02:12:13.000Z,99158
2018-03-25T02:13:13.000Z,99159
2018-03-25T02:15:13.000Z,99157
2018-03-25T02:17:13.000Z,99156
2018-03-25T02:19:13.000Z,99161
2018-03-25T02:20:13.000Z,99160
2018-03-25T02:22:13.000Z,99159
2018-03-25T02:24:13.000Z,99163
2018-03-25T02:25:13.000Z,99166
2018-03-25T02:27:13.000Z,99167
2018-03-25T02:29:13.000Z,99169
2018-03-25T02:31:13.000Z,99170
2018-03-25T02:32:13.000Z,99171
2018-03-25T02:34:13.000Z,99171
2018-03-25T02:35:58.000Z,99171
2018-03-25T02:37:13.000Z,99169
2018-03-25T02:39:13.000Z,99170
2018-03-25T02:41:13.000Z,99172
2018-03-25T02:42:13.000Z,99178
2018-03-25T02:44:13.000Z,99170
2018-03-25T02:45:58.000Z,99174
2018-03-25T02:47:13.000Z,99172
2018-03-25T02:48:13.000Z,99174
2018-03-25T02:50:13.000Z,99179
2018-03-25T02:51:58.000Z,99177
2018-03-25T02:53:13.000Z,99181
2018-03-25T02:54:13.000Z,99181
2018-03-25T02:55:13.000Z,99180
2018-03-25T02:56:13.000Z,99184
2018-03-25T02:58:13.000Z,99192
2018-03-25T03:00:13.000Z,99193
2018-03-25T03:01:43.000Z,99187
2018-03-25T03:03:13.000Z,99192
2018-03-25T03:05:13.000Z,99190
2018-03-25T03:07:13.000Z,99195
2018-03-25T03:09:13.000Z,99194
2018-03-25T03:11:13.000Z,99198
2018-03-25T03:12:13.000Z,99195
2018-03-25T03:13:13.000Z,99195
2018-03-25T03:15:13.000Z,99197
2018-03-25T03:16:43.000Z,99191
2018-03-25T03:18:13.000Z,99202
2018-03-25T03:19:13.000Z,99205
2018-03-25T03:20:13.000Z,99198
2018-03-25T03:22:13.000Z,99208
2018-03-25T03:24:13.000Z,99210
2018-03-25T03:25:58.000Z,99212
2018-03-25T03:27:13.000Z,99217
2018-03-25T03:29:13.000Z,99213
2018-03-25T03:31:13.000Z,99214
2018-03-25T03:32:58.000Z,99214
2018-03-25T03:34:13.000Z,99215
2018-03-25T03:35:43.000Z,99219
2018-03-25T03:37:13.000Z,99212
2018-03-25T03:38:13.000Z,99208
2018-03-25T03:39:13.000Z,99212
2018-03-25T03:40:58.000Z,99211
2018-03-25T03:42:13.000Z,99214
2018-03-25T03:44:13.000Z,99221
2018-03-25T03:45:43.000Z,99218
2018-03-25T03:47:13.000Z,99220
2018-03-25T03:48:13.000Z,99222
2018-03-25T03:50:13.000Z,99222
2018-03-25T03:52:13.000Z,99223
2018-03-25T03:54:13.000Z,99226
2018-03-25T03:56:13.000Z,99229
2018-03-25T03:58:13.000Z,99233
2018-03-25T03:59:58.000Z,99233
2018-03-25T04:01:13.000Z,99233
2018-03-25T04:03:13.000Z,99229
2018-03-25T04:05:13.000Z,99236
2018-03-25T04:07:13.000Z,99235
2018-03-25T04:08:58.000Z,99237
2018-03-25T04:10:13.000Z,99236
2018-03-25T04:12:13.000Z,99237
2018-03-25T04:13:13.000Z,99239
2018-03-25T04:14:13.000Z,99234
2018-03-25T04:16:13.000Z,99245
2018-03-25T04:17:43.000Z,99242
2018-03-25T04:19:13.000Z,99247
2018-03-25T04:21:14.000Z,99240
2018-03-25T04:22:14.000Z,99243
2018-03-25T04:24:14.000Z,99247
2018-03-25T04:26:14.000Z,99246
2018-03-25T04:27:14.000Z,99247
2018-03-25T04:29:14.000Z,99245
2018-03-25T04:30:14.000Z,99248
2018-03-25T04:31:14.000Z,99245
2018-03-25T04:33:14.000Z,99243
2018-03-25T04:35:14.000Z,99245
2018-03-25T04:37:14.000Z,99246
2018-03-25T04:39:14.000Z,99244
2018-03-25T04:40:14.000Z,99246
2018-03-25T04:41:14.000Z,99245
2018-03-25T04:42:14.000Z,99250
2018-03-25T04:44:14.000Z,99252
2018-03-25T04:45:14.000Z,99249
2018-03-25T04:47:14.000Z,99251
2018-03-25T04:49:14.000Z,99244
2018-03-25T04:51:14.000Z,99246
2018-03-25T04:52:58.000Z,99245
2018-03-25T04:54:14.000Z,99245
2018-03-25T04:55:58.000Z,99248
2018-03-25T04:57:14.000Z,99246
2018-03-25T04:59:14.000Z,99246
2018-03-25T05:01:14.000Z,99249
2018-03-25T05:02:58.000Z,99243
2018-03-25T05:04:14.000Z,99248
2018-03-25T05:06:14.000Z,99245
2018-03-25T05:08:14.000Z,99254
2018-03-25T05:09:14.000Z,99250
2018-03-25T05:11:14.000Z,99255
2018-03-25T05:12:14.000Z,99257
2018-03-25T05:14:14.000Z,99256
2018-03-25T05:15:14.000Z,99255
2018-03-25T05:16:14.000Z,99252
2018-03-25T05:18:14.000Z,99260
2018-03-25T05:20:14.000Z,99256
2018-03-25T05:22:14.000Z,99265
2018-03-25T05:24:13.000Z,99260
2018-03-25T05:26:13.000Z,99265
2018-03-25T05:28:13.000Z,99270
2018-03-25T05:30:13.000Z,99266
2018-03-25T05:32:13.000Z,99269
2018-03-25T05:33:13.000Z,99271
2018-03-25T05:34:13.000Z,99268
2018-03-25T05:36:13.000Z,99273
2018-03-25T05:37:13.000Z,99270
2018-03-25T05:38:58.000Z,99275
2018-03-25T05:40:13.000Z,99273
2018-03-25T05:42:13.000Z,99278
2018-03-25T05:44:13.000Z,99278
2018-03-25T05:46:13.000Z,99282
2018-03-25T05:47:13.000Z,99280
2018-03-25T05:49:13.000Z,99284
2018-03-25T05:50:13.000Z,99286
2018-03-25T05:52:13.000Z,99289
2018-03-25T05:54:13.000Z,99288
2018-03-25T05:56:13.000Z,99295
2018-03-25T05:57:13.000Z,99293
2018-03-25T05:58:13.000Z,99293
2018-03-25T05:59:13.000Z,99289
2018-03-25T06:00:43.000Z,99300
2018-03-25T06:02:13.000Z,99297
2018-03-25T06:03:13.000Z,99297
2018-03-25T06:05:13.000Z,99300
2018-03-25T06:07:13.000Z,99303
2018-03-25T06:08:13.000Z,99305
2018-03-25T06:09:13.000Z,99304
2018-03-25T06:11:13.000Z,99304
2018-03-25T06:12:58.000Z,99298
2018-03-25T06:14:13.000Z,99300
2018-03-25T06:16:13.000Z,99306
2018-03-25T06:17:58.000Z,99310
2018-03-25T06:19:13.000Z,99309
2018-03-25T06:20:13.000Z,99307
2018-03-25T06:21:58.000Z,99311
2018-03-25T06:23:13.000Z,99310
2018-03-25T06:24:13.000Z,99311
2018-03-25T06:25:58.000Z,99316
2018-03-25T06:27:13.000Z,99319
2018-03-25T06:29:13.000Z,99321
2018-03-25T06:31:13.000Z,99321
2018-03-25T06:32:13.000Z,99325
2018-03-25T06:34:13.000Z,99328
2018-03-25T06:35:58.000Z,99324
2018-03-25T06:37:13.000Z,99325
2018-03-25T06:39:13.000Z,99328
2018-03-25T06:41:13.000Z,99334
2018-03-25T06:42:13.000Z,99337
2018-03-25T06:43:58.000Z,99334
2018-03-25T06:45:13.000Z,99335
2018-03-25T06:46:13.000Z,99330
2018-03-25T06:47:58.000Z,99336
2018-03-25T06:49:13.000Z,99336
2018-03-25T06:51:13.000Z,99337
2018-03-25T06:53:13.000Z,99344
2018-03-25T06:55:13.000Z,99349
2018-03-25T06:56:13.000Z,99349
2018-03-25T06:57:13.000Z,99351
2018-03-25T06:58:13.000Z,99355
2018-03-25T07:00:13.000Z,99356
2018-03-25T07:01:58.000Z,99358
2018-03-25T07:03:13.000Z,99361
2018-03-25T07:04:13.000Z,99356
2018-03-25T07:06:13.000Z,99353
2018-03-25T07:07:58.000Z,99359
2018-03-25T07:09:13.000Z,99362
2018-03-25T07:10:13.000Z,99359
2018-03-25T07:12:13.000Z,99370
2018-03-25T07:14:13.000Z,99371
2018-03-25T07:16:13.000Z,99372
2018-03-25T07:18:13.000Z,99370
2018-03-25T07:19:13.000Z,99378
2018-03-25T07:20:13.000Z,99377
2018-03-25T07:22:13.000Z,99380
2018-03-25T07:23:13.000Z,99383
2018-03-25T07:25:13.000Z,99377
2018-03-25T07:27:13.000Z,99378
2018-03-25T07:29:13.000Z,99385
2018-03-25T07:31:13.000Z,99383
2018-03-25T07:33:13.000Z,99386
2018-03-25T07:34:13.000Z,99390
2018-03-25T07:36:13.000Z,99390
2018-03-25T07:37:13.000Z,99394
2018-03-25T07:39:13.000Z,99396
2018-03-25T07:40:58.000Z,99395
2018-03-25T07:42:13.000Z,99404
2018-03-25T07:44:13.000Z,99399
2018-03-25T07:45:13.000Z,99400
2018-03-25T07:47:13.000Z,99403
2018-03-25T07:48:13.000Z,99404
2018-03-25T07:50:13.000Z,99407
2018-03-25T07:51:13.000Z,99409
2018-03-25T07:53:13.000Z,99407
2018-03-25T07:54:58.000Z,99410
2018-03-25T07:56:13.000Z,99410
2018-03-25T07:58:13.000Z,99412
2018-03-25T07:59:13.000Z,99412
2018-03-25T08:00:13.000Z,99414
2018-03-25T08:02:13.000Z,99412
2018-03-25T08:03:13.000Z,99414
2018-03-25T08:05:13.000Z,99424
2018-03-25T08:06:13.000Z,99411
2018-03-25T08:08:13.000Z,99423
2018-03-25T08:10:13.000Z,99427
2018-03-25T08:12:13.000Z,99428
2018-03-25T08:14:13.000Z,99432
2018-03-25T08:16:13.000Z,99433
2018-03-25T08:18:13.000Z,99439
2018-03-25T08:20:13.000Z,99434
2018-03-25T08:22:13.000Z,99434
2018-03-25T08:23:13.000Z,99437
2018-03-25T08:25:13.000Z,99441
2018-03-25T08:26:58.000Z,99443
2018-03-25T08:28:13.000Z,99438
2018-03-25T08:29:13.000Z,99440
2018-03-25T08:31:13.000Z,99445
2018-03-25T08:33:13.000Z,99443
2018-03-25T08:35:13.000Z,99447
2018-03-25T08:37:13.000Z,99449
2018-03-25T08:38:13.000Z,99447
2018-03-25T08:40:13.000Z,99451
2018-03-25T08:42:13.000Z,99452
2018-03-25T08:44:13.000Z,99449
2018-03-25T08:45:13.000Z,99452
2018-03-25T08:46:13.000Z,99455
2018-03-25T08:48:13.000Z,99458
2018-03-25T08:50:13.000Z,99462
2018-03-25T08:52:13.000Z,99457
2018-03-25T08:53:13.000Z,99463
2018-03-25T08:55:13.000Z,99460
2018-03-25T08:57:13.000Z,99459
2018-03-25T08:59:13.000Z,99463
2018-03-25T09:01:13.000Z,99463
2018-03-25T09:03:13.000Z,99461
2018-03-25T09:04:13.000Z,99466
2018-03-25T09:06:13.000Z,99465
2018-03-25T09:08:13.000Z,99459
2018-03-25T09:09:58.000Z,99459
2018-03-25T09:11:13.000Z,99458
2018-03-25T09:12:13.000Z,99463
2018-03-25T09:14:13.000Z,99457
2018-03-25T09:15:13.000Z,99457
2018-03-25T09:17:13.000Z,99454
2018-03-25T09:19:13.000Z,99449
2018-03-25T09:20:13.000Z,99451
2018-03-25T09:22:13.000Z,99453
2018-03-25T09:24:13.000Z,99453
2018-03-25T09:25:13.000Z,99455
2018-03-25T09:26:13.000Z,99459
2018-03-25T09:28:13.000Z,99456
2018-03-25T09:30:13.000Z,99456
2018-03-25T09:31:13.000Z,99454
2018-03-25T09:33:13.000Z,99460
2018-03-25T09:35:13.000Z,99457
2018-03-25T09:37:13.000Z,99460
2018-03-25T09:39:14.000Z,99461
2018-03-25T09:40:14.000Z,99459
2018-03-25T09:42:14.000Z,99465
2018-03-25T09:43:14.000Z,99466
2018-03-25T09:44:58.000Z,99466
2018-03-25T09:46:14.000Z,99466
2018-03-25T09:48:14.000Z,99470
2018-03-25T09:49:58.000Z,99473
2018-03-25T09:51:14.000Z,99474
2018-03-25T09:53:14.000Z,99478
2018-03-25T09:54:58.000Z,99478
2018-03-25T09:56:14.000Z,99480
2018-03-25T09:58:14.000Z,99483
2018-03-25T10:00:14.000Z,99480
2018-03-25T10:02:14.000Z,99489
2018-03-25T10:03:14.000Z,99484
2018-03-25T10:05:14.000Z,99490
2018-03-25T10:06:14.000Z,99490
2018-03-25T10:08:14.000Z,99493
2018-03-25T10:09:14.000Z,99491
2018-03-25T10:10:14.000Z,99493
2018-03-25T10:12:14.000Z,99499
2018-03-25T10:14:14.000Z,99502
2018-03-25T10:15:14.000Z,99500
2018-03-25T10:17:14.000Z,99503
2018-03-25T10:19:14.000Z,99504
2018-03-25T10:20:58.000Z,99499
2018-03-25T10:22:14.000Z,99503
2018-03-25T10:24:14.000Z,99503
2018-03-25T10:25:59.000Z,99501
2018-03-25T10:27:14.000Z,99502
2018-03-25T10:28:14.000Z,99501
2018-03-25T10:30:14.000Z,99501
2018-03-25T10:32:14.000Z,99503
2018-03-25T10:34:14.000Z,99501
2018-03-25T10:36:14.000Z,99500
2018-03-25T10:37:58.000Z,99502
2018-03-25T10:39:14.000Z,99502
2018-03-25T10:40:14.000Z,99502
2018-03-25T10:42:14.000Z,99508
2018-03-25T10:43:59.000Z,99500
2018-03-25T10:45:14.000Z,99503
2018-03-25T10:46:59.000Z,99505
2018-03-25T10:47:59.000Z,99501
2018-03-25T10:49:14.000Z,99500
2018-03-25T10:50:59.000Z,99505
2018-03-25T10:52:14.000Z,99505
2018-03-25T10:54:14.000Z,99500
2018-03-25T10:56:14.000Z,99497
2018-03-25T10:58:14.000Z,99501
2018-03-25T10:59:14.000Z,99501
2018-03-25T11:00:59.000Z,99499
2018-03-25T11:01:59.000Z,99501
2018-03-25T11:03:14.000Z,99502
2018-03-25T11:04:14.000Z,99507
2018-03-25T11:05:59.000Z,99506
2018-03-25T11:07:14.000Z,99509
2018-03-25T11:09:14.000Z,99506
2018-03-25T11:10:14.000Z,99505
2018-03-25T11:12:14.000Z,99512
2018-03-25T11:13:14.000Z,99507
2018-03-25T11:14:59.000Z,99502
2018-03-25T11:16:14.000Z,99508
2018-03-25T11:18:14.000Z,99508
2018-03-25T11:20:14.000Z,99511
2018-03-25T11:21:14.000Z,99510
2018-03-25T11:23:14.000Z,99503
2018-03-25T11:24:59.000Z,99501
2018-03-25T11:26:14.000Z,99503
2018-03-25T11:27:59.000Z,99508
2018-03-25T11:29:14.000Z,99507
2018-03-25T11:30:14.000Z,99509
2018-03-25T11:32:14.000Z,99505
2018-03-25T11:33:14.000Z,99501
2018-03-25T11:35:14.000Z,99507
2018-03-25T11:37:14.000Z,99510
2018-03-25T11:38:14.000Z,99509
2018-03-25T11:39:14.000Z,99514
2018-03-25T11:41:14.000Z,99513
2018-03-25T11:42:14.000Z,99511
2018-03-25T11:44:14.000Z,99513
2018-03-25T11:46:14.000Z,99512
2018-03-25T11:47:14.000Z,99515
2018-03-25T11:49:14.000Z,99511
2018-03-25T11:51:14.000Z,99510
2018-03-25T11:53:14.000Z,99514
2018-03-25T11:54:14.000Z,99520
2018-03-25T11:56:14.000Z,99517
2018-03-25T11:58:14.000Z,99519
2018-03-25T11:59:14.000Z,99523
2018-03-25T12:01:14.000Z,99518
2018-03-25T12:03:14.000Z,99521
2018-03-25T12:05:14.000Z,99514
2018-03-25T12:07:14.000Z,99510
2018-03-25T12:08:14.000Z,99512
2018-03-25T12:10:14.000Z,99514
2018-03-25T12:11:14.000Z,99513
2018-03-25T12:12:14.000Z,99512
2018-03-25T12:14:14.000Z,99511
2018-03-25T12:15:14.000Z,99512
2018-03-25T12:17:14.000Z,99512
2018-03-25T12:18:14.000Z,99511
2018-03-25T12:20:14.000Z,99506
2018-03-25T12:22:14.000Z,99504
2018-03-25T12:23:43.000Z,99505
2018-03-25T12:25:14.000Z,99510
2018-03-25T12:26:14.000Z,99505
2018-03-25T12:28:14.000Z,99514
2018-03-25T12:30:14.000Z,99513
2018-03-25T12:32:14.000Z,99512
2018-03-25T12:33:14.000Z,99506
2018-03-25T12:35:14.000Z,99511
2018-03-25T12:37:14.000Z,99509
2018-03-25T12:38:59.000Z,99512
2018-03-25T12:40:14.000Z,99517
2018-03-25T12:41:59.000Z,99516
2018-03-25T12:43:59.000Z,99421
2018-03-25T12:45:14.000Z,99524
2018-03-25T12:46:14.000Z,99519
2018-03-25T12:48:14.000Z,99523
2018-03-25T12:50:13.000Z,99525
2018-03-25T12:51:13.000Z,99520
2018-03-25T12:53:13.000Z,99520
2018-03-25T12:55:13.000Z,99519
2018-03-25T12:56:58.000Z,99513
2018-03-25T12:58:13.000Z,99512
2018-03-25T13:00:13.000Z,99515
2018-03-25T13:01:58.000Z,99513
2018-03-25T13:03:13.000Z,99515
2018-03-25T13:05:13.000Z,99513
2018-03-25T13:07:13.000Z,99514
2018-03-25T13:08:13.000Z,99506
2018-03-25T13:10:13.000Z,99515
2018-03-25T13:12:13.000Z,99514
2018-03-25T13:14:13.000Z,99520
2018-03-25T13:15:13.000Z,99516
2018-03-25T13:16:58.000Z,99515
2018-03-25T13:18:13.000Z,99514
2018-03-25T13:20:13.000Z,99512
2018-03-25T13:21:58.000Z,99520
2018-03-25T13:23:13.000Z,99516
2018-03-25T13:25:13.000Z,99512
2018-03-25T13:27:13.000Z,99516
2018-03-25T13:28:13.000Z,99513
2018-03-25T13:29:58.000Z,99514
2018-03-25T13:31:13.000Z,99515
2018-03-25T13:32:13.000Z,99520
2018-03-25T13:34:13.000Z,99519
2018-03-25T13:35:58.000Z,99517
2018-03-25T13:37:13.000Z,99517
2018-03-25T13:39:13.000Z,99518
2018-03-25T13:40:13.000Z,99518
2018-03-25T13:42:13.000Z,99523
2018-03-25T13:44:13.000Z,99516
2018-03-25T13:46:13.000Z,99522
2018-03-25T13:48:13.000Z,99516
2018-03-25T13:50:13.000Z,99521
2018-03-25T13:52:13.000Z,99513
2018-03-25T13:53:58.000Z,99517
2018-03-25T13:55:13.000Z,99511
2018-03-25T13:56:13.000Z,99514
2018-03-25T13:58:13.000Z,99513
2018-03-25T14:00:13.000Z,99505
2018-03-25T14:02:13.000Z,99515
2018-03-25T14:03:13.000Z,99509
2018-03-25T14:05:13.000Z,99519
2018-03-25T14:06:43.000Z,99522
2018-03-25T14:08:13.000Z,99528
2018-03-25T14:09:13.000Z,99525
2018-03-25T14:10:58.000Z,99528
2018-03-25T14:12:13.000Z,99523
2018-03-25T14:13:13.000Z,99525
2018-03-25T14:14:13.000Z,99526
2018-03-25T14:16:13.000Z,99517
2018-03-25T14:18:13.000Z,99525
2018-03-25T14:20:13.000Z,99524
2018-03-25T14:22:13.000Z,99519
2018-03-25T14:24:13.000Z,99517
2018-03-25T14:25:58.000Z,99520
2018-03-25T14:27:13.000Z,99526
2018-03-25T14:28:13.000Z,99529
2018-03-25T14:30:13.000Z,99529
2018-03-25T14:32:13.000Z,99527
2018-03-25T14:34:13.000Z,99526
2018-03-25T14:36:13.000Z,99524
2018-03-25T14:37:13.000Z,99528
2018-03-25T14:39:13.000Z,99529
2018-03-25T14:41:13.000Z,99534
2018-03-25T14:43:13.000Z,99535
2018-03-25T14:45:13.000Z,99537
2018-03-25T14:47:13.000Z,99536
2018-03-25T14:49:13.000Z,99530
2018-03-25T14:50:13.000Z,99533
2018-03-25T14:51:58.000Z,99528
2018-03-25T14:53:13.000Z,99530
2018-03-25T14:55:13.000Z,99542
2018-03-25T14:57:13.000Z,99534
2018-03-25T14:59:13.000Z,99540
2018-03-25T15:00:58.000Z,99539
2018-03-25T15:02:13.000Z,99537
2018-03-25T15:04:13.000Z,99534
2018-03-25T15:05:58.000Z,99541
2018-03-25T15:07:13.000Z,99541
2018-03-25T15:08:13.000Z,99542
2018-03-25T15:10:13.000Z,99545
2018-03-25T15:11:14.000Z,99540
2018-03-25T15:13:13.000Z,99534
2018-03-25T15:14:58.000Z,99545
2018-03-25T15:16:13.000Z,99547
2018-03-25T15:18:13.000Z,99551
2018-03-25T15:19:13.000Z,99550
2018-03-25T15:20:58.000Z,99551
2018-03-25T15:22:13.000Z,99553
2018-03-25T15:24:13.000Z,99553
2018-03-25T15:26:13.000Z,99558
2018-03-25T15:28:13.000Z,99555
2018-03-25T15:30:13.000Z,99557
2018-03-25T15:31:13.000Z,99556
2018-03-25T15:32:58.000Z,99556
2018-03-25T15:34:13.000Z,99557
2018-03-25T15:36:13.000Z,99558
2018-03-25T15:37:14.000Z,99557
2018-03-25T15:39:13.000Z,99558
2018-03-25T15:41:13.000Z,99560
2018-03-25T15:43:13.000Z,99563
2018-03-25T15:45:13.000Z,99559
2018-03-25T15:46:43.000Z,99561
2018-03-25T15:48:13.000Z,99564
2018-03-25T15:49:13.000Z,99564
2018-03-25T15:51:14.000Z,99556
2018-03-25T15:53:13.000Z,99571
2018-03-25T15:54:58.000Z,99571
2018-03-25T15:56:13.000Z,99580
2018-03-25T15:57:13.000Z,99572
2018-03-25T15:58:58.000Z,99572
2018-03-25T15:59:58.000Z,99571
2018-03-25T16:01:13.000Z,99572
2018-03-25T16:02:13.000Z,99575
2018-03-25T16:04:13.000Z,99574
2018-03-25T16:06:13.000Z,99578
2018-03-25T16:08:13.000Z,99579
2018-03-25T16:10:13.000Z,99583
2018-03-25T16:11:13.000Z,99581
2018-03-25T16:13:13.000Z,99580
2018-03-25T16:15:13.000Z,99578
2018-03-25T16:17:13.000Z,99583
2018-03-25T16:19:13.000Z,99585
2018-03-25T16:20:13.000Z,99582
2018-03-25T16:21:13.000Z,99595
2018-03-25T16:23:13.000Z,99593
2018-03-25T16:24:13.000Z,99594
2018-03-25T16:26:13.000Z,99597
2018-03-25T16:27:58.000Z,99596
2018-03-25T16:29:13.000Z,99590
2018-03-25T16:31:13.000Z,99596
2018-03-25T16:32:58.000Z,99601
2018-03-25T16:34:13.000Z,99605
2018-03-25T16:36:13.000Z,99596
2018-03-25T16:37:13.000Z,99607
2018-03-25T16:39:13.000Z,99598
2018-03-25T16:41:13.000Z,99601
2018-03-25T16:42:13.000Z,99603
2018-03-25T16:43:13.000Z,99609
2018-03-25T16:45:13.000Z,99609
2018-03-25T16:47:13.000Z,99604
2018-03-25T16:49:13.000Z,99613
2018-03-25T16:50:13.000Z,99613
2018-03-25T16:51:13.000Z,99619
2018-03-25T16:52:13.000Z,99619
2018-03-25T16:54:13.000Z,99624
2018-03-25T16:56:13.000Z,99623
2018-03-25T16:58:13.000Z,99624
2018-03-25T17:00:13.000Z,99627
2018-03-25T17:02:13.000Z,99627
2018-03-25T17:04:14.000Z,99632
2018-03-25T17:06:14.000Z,99638
2018-03-25T17:07:14.000Z,99639
2018-03-25T17:08:14.000Z,99643
2018-03-25T17:09:14.000Z,99638
2018-03-25T17:11:14.000Z,99641
2018-03-25T17:13:14.000Z,99647
2018-03-25T17:15:14.000Z,99647
2018-03-25T17:17:14.000Z,99657
2018-03-25T17:18:59.000Z,99661
2018-03-25T17:20:14.000Z,99658
2018-03-25T17:21:59.000Z,99659
2018-03-25T17:23:14.000Z,99661
2018-03-25T17:24:14.000Z,99658
2018-03-25T17:25:59.000Z,99665
2018-03-25T17:27:14.000Z,99669
2018-03-25T17:28:14.000Z,99667
2018-03-25T17:30:14.000Z,99664
2018-03-25T17:32:14.000Z,99677
2018-03-25T17:34:14.000Z,99675
2018-03-25T17:35:14.000Z,99668
2018-03-25T17:37:14.000Z,99670
2018-03-25T17:38:14.000Z,99680
2018-03-25T17:39:14.000Z,99676
2018-03-25T17:41:14.000Z,99675
2018-03-25T17:42:14.000Z,99677
2018-03-25T17:44:14.000Z,99678
2018-03-25T17:46:14.000Z,99681
2018-03-25T17:47:14.000Z,99682
2018-03-25T17:49:14.000Z,99687
2018-03-25T17:50:14.000Z,99684
2018-03-25T17:52:14.000Z,99687
2018-03-25T17:53:14.000Z,99683
2018-03-25T17:55:14.000Z,99688
2018-03-25T17:56:59.000Z,99687
2018-03-25T17:57:59.000Z,99693
2018-03-25T17:59:14.000Z,99693
2018-03-25T18:00:59.000Z,99694
2018-03-25T18:02:14.000Z,99695
2018-03-25T18:04:14.000Z,99700
2018-03-25T18:06:14.000Z,99697
2018-03-25T18:07:14.000Z,99698
2018-03-25T18:08:58.000Z,99703
2018-03-25T18:10:13.000Z,99710
2018-03-25T18:11:13.000Z,99709
2018-03-25T18:12:58.000Z,99717
2018-03-25T18:14:13.000Z,99714
2018-03-25T18:16:13.000Z,99721
2018-03-25T18:17:13.000Z,99723
2018-03-25T18:19:13.000Z,99723
2018-03-25T18:21:13.000Z,99722
2018-03-25T18:22:58.000Z,99729
2018-03-25T18:24:13.000Z,99736
2018-03-25T18:25:13.000Z,99735
2018-03-25T18:27:13.000Z,99737
2018-03-25T18:28:13.000Z,99734
2018-03-25T18:29:58.000Z,99734
2018-03-25T18:31:13.000Z,99735
2018-03-25T18:32:43.000Z,99734
2018-03-25T18:34:13.000Z,99739
2018-03-25T18:35:13.000Z,99735
2018-03-25T18:37:13.000Z,99741
2018-03-25T18:39:13.000Z,99746
2018-03-25T18:40:43.000Z,99746
2018-03-25T18:42:13.000Z,99747
2018-03-25T18:43:13.000Z,99745
2018-03-25T18:44:13.000Z,99748
2018-03-25T18:46:13.000Z,99742
2018-03-25T18:48:13.000Z,99744
2018-03-25T18:49:58.000Z,99743
2018-03-25T18:51:13.000Z,99745
2018-03-25T18:53:13.000Z,99745
2018-03-25T18:55:13.000Z,99749
2018-03-25T18:56:13.000Z,99754
2018-03-25T18:57:43.000Z,99760
2018-03-25T18:59:13.000Z,99761
2018-03-25T19:01:13.000Z,99764
2018-03-25T19:02:13.000Z,99764
2018-03-25T19:04:13.000Z,99768
2018-03-25T19:05:58.000Z,99769
2018-03-25T19:07:13.000Z,99768
2018-03-25T19:08:58.000Z,99773
2018-03-25T19:10:13.000Z,99770
2018-03-25T19:11:14.000Z,99773
2018-03-25T19:13:14.000Z,99776
2018-03-25T19:14:14.000Z,99779
2018-03-25T19:16:14.000Z,99779
2018-03-25T19:17:14.000Z,99781
2018-03-25T19:18:14.000Z,99779
2018-03-25T19:20:14.000Z,99785
2018-03-25T19:22:14.000Z,99788
2018-03-25T19:23:14.000Z,99778
2018-03-25T19:25:14.000Z,99783
2018-03-25T19:27:14.000Z,99788
2018-03-25T19:28:14.000Z,99786
2018-03-25T19:30:14.000Z,99792
2018-03-25T19:31:14.000Z,99788
2018-03-25T19:32:14.000Z,99787
2018-03-25T19:33:14.000Z,99786
2018-03-25T19:35:14.000Z,99787
2018-03-25T19:37:14.000Z,99790
2018-03-25T19:39:14.000Z,99793
2018-03-25T19:41:14.000Z,99785
2018-03-25T19:43:14.000Z,99792
2018-03-25T19:44:14.000Z,99793
2018-03-25T19:46:14.000Z,99791
2018-03-25T19:48:14.000Z,99796
2018-03-25T19:49:14.000Z,99791
2018-03-25T19:50:14.000Z,99789
2018-03-25T19:52:14.000Z,99790
2018-03-25T19:54:14.000Z,99797
2018-03-25T19:56:14.000Z,99793
2018-03-25T19:58:14.000Z,99797
2018-03-25T19:59:14.000Z,99800
2018-03-25T20:01:14.000Z,99799
2018-03-25T20:02:14.000Z,99800
2018-03-25T20:04:14.000Z,99803
2018-03-25T20:05:14.000Z,99804
2018-03-25T20:07:14.000Z,99801
2018-03-25T20:09:14.000Z,99804
2018-03-25T20:11:14.000Z,99807
2018-03-25T20:13:14.000Z,99807
2018-03-25T20:14:58.000Z,99807
2018-03-25T20:16:14.000Z,99813
2018-03-25T20:18:14.000Z,99812
2018-03-25T20:20:14.000Z,99810
2018-03-25T20:22:14.000Z,99809
2018-03-25T20:24:14.000Z,99824
2018-03-25T20:26:14.000Z,99817
2018-03-25T20:27:14.000Z,99817
2018-03-25T20:29:14.000Z,99814
2018-03-25T20:31:14.000Z,99813
2018-03-25T20:33:14.000Z,99813
2018-03-25T20:34:14.000Z,99817
2018-03-25T20:35:14.000Z,99812
2018-03-25T20:36:58.000Z,99814
2018-03-25T20:38:14.000Z,99816
2018-03-25T20:39:58.000Z,99820
2018-03-25T20:40:58.000Z,99822
2018-03-25T20:42:14.000Z,99823
2018-03-25T20:44:14.000Z,99826